createdAt,value
2022-12-01T00:03:44.267Z,12.60
2022-12-01T00:09:09.600Z,10.40
2022-12-01T00:14:12.903Z,9.00
2022-12-01T00:19:16.242Z,8.50
2022-12-01T00:24:19.423Z,10.30
2022-12-01T00:29:22.548Z,12.00
2022-12-01T00:34:26.564Z,16.50
2022-12-01T00:39:29.773Z,11.70
2022-12-01T00:44:32.872Z,11.60
2022-12-01T00:49:35.978Z,12.50
2022-12-01T00:54:39.800Z,12.20
2022-12-01T00:59:43.013Z,9.30
2022-12-01T01:04:46.225Z,9.60
2022-12-01T01:09:49.644Z,11.20
2022-12-01T01:14:52.984Z,15.20
2022-12-01T01:19:56.364Z,12.70
2022-12-01T01:24:59.496Z,9.80
2022-12-01T01:30:02.668Z,4.90
2022-12-01T01:35:06.708Z,6.60
2022-12-01T01:40:11.045Z,8.50
2022-12-01T01:45:23.592Z,4.70
2022-12-01T01:50:29.125Z,10.60
2022-12-01T01:55:35.410Z,10.10
2022-12-01T02:00:42.375Z,9.00
2022-12-01T02:05:46.634Z,8.20
2022-12-01T02:11:15.347Z,10.80
2022-12-01T02:17:41.829Z,6.10
2022-12-01T02:23:07.148Z,8.50
2022-12-01T02:29:07.686Z,6.60
2022-12-01T02:34:21.972Z,11.20
2022-12-01T02:40:03.763Z,23.80
2022-12-01T02:45:17.741Z,15.60
2022-12-01T02:50:24.332Z,12.20
2022-12-01T02:55:27.516Z,8.40
2022-12-01T03:00:31.475Z,9.50
2022-12-01T03:06:06.301Z,15.60
2022-12-01T03:11:27.266Z,7.60
2022-12-01T03:16:52.440Z,5.10
2022-12-01T03:22:10.796Z,6.00
2022-12-01T03:27:21.919Z,4.90
2022-12-01T03:32:37.090Z,4.40
2022-12-01T03:37:47.262Z,5.40
2022-12-01T03:42:59.690Z,7.10
2022-12-01T03:48:03.448Z,5.10
2022-12-01T03:53:07.032Z,3.80
2022-12-01T03:58:30.909Z,5.00
2022-12-01T04:03:34.947Z,8.80
2022-12-01T04:08:39.181Z,9.40
2022-12-01T04:13:42.283Z,8.80
2022-12-01T04:18:45.503Z,9.70
2022-12-01T04:24:00.887Z,7.60
2022-12-01T04:29:09.551Z,7.70
2022-12-01T04:34:12.626Z,9.00
2022-12-01T04:39:15.880Z,10.70
2022-12-01T04:44:19.261Z,8.90
2022-12-01T04:49:22.806Z,9.30
2022-12-01T04:54:26.192Z,15.20
2022-12-01T04:59:29.294Z,21.80
2022-12-01T05:04:34.261Z,34.50
2022-12-01T05:09:37.649Z,30.90
2022-12-01T05:14:40.662Z,18.50
2022-12-01T05:20:02.418Z,21.40
2022-12-01T05:25:08.480Z,20.60
2022-12-01T05:30:12.707Z,15.70
2022-12-01T05:35:16.014Z,10.80
2022-12-01T05:40:19.343Z,15.80
2022-12-01T05:45:22.956Z,13.20
2022-12-01T05:50:29.489Z,23.40
2022-12-01T05:55:35.814Z,24.40
2022-12-01T06:00:45.423Z,23.10
2022-12-01T06:05:49.190Z,20.00
2022-12-01T06:10:52.300Z,19.10
2022-12-01T06:16:05.535Z,14.30
2022-12-01T06:21:08.647Z,12.50
2022-12-01T06:26:11.753Z,10.50
2022-12-01T06:31:14.770Z,8.60
2022-12-01T06:36:17.971Z,12.70
2022-12-01T06:41:21.078Z,21.30
2022-12-01T06:46:24.476Z,21.40
2022-12-01T06:51:28.615Z,19.50
2022-12-01T06:56:31.727Z,12.80
2022-12-01T07:01:35.237Z,16.70
2022-12-01T07:06:38.552Z,15.40
2022-12-01T07:11:41.661Z,17.50
2022-12-01T07:16:44.917Z,19.00
2022-12-01T07:21:48.087Z,17.60
2022-12-01T07:26:51.287Z,18.60
2022-12-01T07:31:54.388Z,40.40
2022-12-01T07:36:57.494Z,41.20
2022-12-01T07:42:00.599Z,38.80
2022-12-01T07:47:04.225Z,20.70
2022-12-01T07:52:07.437Z,32.30
2022-12-01T07:57:14.457Z,16.60
2022-12-01T08:02:17.702Z,27.90
2022-12-01T08:07:21.086Z,42.00
2022-12-01T08:12:24.458Z,26.70
2022-12-01T08:17:27.568Z,16.60
2022-12-01T08:22:30.815Z,69.60
2022-12-01T08:27:35.468Z,56.60
2022-12-01T08:32:38.572Z,22.70
2022-12-01T08:37:41.946Z,31.50
2022-12-01T08:42:47.139Z,34.70
2022-12-01T08:47:50.605Z,24.20
2022-12-01T08:52:53.917Z,23.90
2022-12-01T08:57:57.024Z,22.90
2022-12-01T09:03:01.304Z,21.70
2022-12-01T09:08:23.920Z,16.10
2022-12-01T09:13:28.788Z,31.70
2022-12-01T09:18:32.600Z,28.50
2022-12-01T09:23:35.809Z,29.90
2022-12-01T09:28:39.110Z,22.60
2022-12-01T09:33:43.037Z,19.40
2022-12-01T09:38:46.345Z,23.30
2022-12-01T09:43:56.939Z,18.20
2022-12-01T09:49:04.190Z,18.30
2022-12-01T09:54:11.109Z,18.30
2022-12-01T09:59:22.686Z,25.00
2022-12-01T10:04:36.686Z,30.50
2022-12-01T10:09:54.748Z,24.70
2022-12-01T10:15:13.425Z,22.20
2022-12-01T10:25:51.684Z,24.30
2022-12-01T10:31:05.078Z,18.00
2022-12-01T10:36:10.706Z,16.40
2022-12-01T10:41:18.658Z,18.50
2022-12-01T10:47:06.577Z,11.10
2022-12-01T10:52:41.939Z,24.40
2022-12-01T10:57:46.236Z,23.70
2022-12-01T11:02:49.818Z,24.00
2022-12-01T11:07:54.048Z,17.60
2022-12-01T11:13:21.036Z,17.90
2022-12-01T11:18:50.453Z,27.10
2022-12-01T11:23:56.287Z,17.40
2022-12-01T11:29:22.237Z,18.20
2022-12-01T11:34:34.616Z,20.30
2022-12-01T11:39:44.130Z,32.20
2022-12-01T11:45:13.635Z,33.90
2022-12-01T11:50:28.576Z,57.20
2022-12-01T11:55:32.856Z,72.20
2022-12-01T12:00:58.209Z,27.70
2022-12-01T12:06:39.589Z,21.50
2022-12-01T12:12:01.933Z,16.80
2022-12-01T12:18:02.204Z,16.90
2022-12-01T12:23:20.949Z,11.80
2022-12-01T12:33:33.717Z,25.80
2022-12-01T12:38:55.460Z,23.90
2022-12-01T12:44:37.616Z,21.40
2022-12-01T12:49:57.339Z,21.10
2022-12-01T12:55:20.561Z,15.10
2022-12-01T13:00:29.925Z,16.90
2022-12-01T13:05:40.609Z,18.80
2022-12-01T13:11:03.357Z,19.00
2022-12-01T13:16:15.876Z,47.30
2022-12-01T13:21:23.663Z,40.00
2022-12-01T13:26:27.327Z,28.70
2022-12-01T13:31:51.016Z,22.50
2022-12-01T13:36:56.737Z,17.90
2022-12-01T13:42:25.939Z,22.40
2022-12-01T13:47:50.604Z,21.00
2022-12-01T13:53:31.216Z,21.70
2022-12-01T13:58:34.305Z,22.60
2022-12-01T14:03:41.460Z,77.30
2022-12-01T14:09:03.175Z,106.10
2022-12-01T14:14:09.214Z,221.80
2022-12-01T14:19:47.419Z,60.00
2022-12-01T14:24:53.425Z,31.30
2022-12-01T14:29:56.629Z,24.10
2022-12-01T14:35:05.320Z,51.50
2022-12-01T14:40:25.165Z,94.30
2022-12-01T14:45:55.507Z,28.80
2022-12-01T14:51:33.238Z,66.90
2022-12-01T14:56:37.876Z,42.10
2022-12-01T15:01:41.655Z,80.90
2022-12-01T15:06:46.189Z,77.70
2022-12-01T15:12:02.467Z,82.70
2022-12-01T15:17:09.290Z,70.90
2022-12-01T15:22:16.889Z,45.60
2022-12-01T15:27:31.121Z,50.30
2022-12-01T15:32:43.254Z,69.10
2022-12-01T15:37:47.364Z,52.40
2022-12-01T15:43:38.229Z,33.30
2022-12-01T15:48:42.417Z,41.10
2022-12-01T15:53:51.415Z,36.90
2022-12-01T15:59:20.687Z,37.90
2022-12-01T16:04:35.563Z,57.30
2022-12-01T16:09:58.729Z,33.20
2022-12-01T16:15:03.188Z,28.40
2022-12-01T16:20:23.288Z,33.50
2022-12-01T16:25:39.133Z,28.70
2022-12-01T16:30:42.377Z,90.70
2022-12-01T16:35:46.435Z,49.40
2022-12-01T16:40:57.212Z,44.00
2022-12-01T16:46:06.721Z,40.90
2022-12-01T16:51:14.605Z,39.30
2022-12-01T16:56:17.796Z,38.80
2022-12-01T17:01:21.065Z,37.30
2022-12-01T17:06:24.423Z,33.60
2022-12-01T17:11:27.634Z,35.50
2022-12-01T17:16:30.887Z,30.90
2022-12-01T17:21:34.150Z,33.70
2022-12-01T17:26:37.352Z,34.20
2022-12-01T17:31:40.618Z,56.80
2022-12-01T17:36:44.206Z,51.70
2022-12-01T17:41:47.391Z,39.90
2022-12-01T17:46:50.649Z,51.60
2022-12-01T17:51:53.974Z,34.00
2022-12-01T17:56:57.533Z,25.00
2022-12-01T18:02:00.900Z,26.00
2022-12-01T18:07:04.459Z,22.20
2022-12-01T18:12:07.922Z,26.90
2022-12-01T18:17:11.502Z,35.40
2022-12-01T18:22:14.801Z,33.90
2022-12-01T18:27:17.919Z,25.50
2022-12-01T18:32:21.321Z,82.30
2022-12-01T18:37:24.647Z,32.10
2022-12-01T18:42:27.775Z,22.10
2022-12-01T18:47:30.977Z,39.40
2022-12-01T18:52:37.779Z,30.10
2022-12-01T18:57:40.969Z,46.80
2022-12-01T19:02:44.128Z,67.30
2022-12-01T19:07:48.884Z,38.80
2022-12-01T19:12:52.215Z,63.00
2022-12-01T19:17:55.733Z,42.40
2022-12-01T19:22:59.798Z,44.90
2022-12-01T19:28:03.576Z,32.90
2022-12-01T19:33:06.787Z,27.40
2022-12-01T19:38:09.995Z,16.40
2022-12-01T19:43:13.305Z,45.00
2022-12-01T19:48:16.522Z,26.10
2022-12-01T19:53:19.724Z,38.00
2022-12-01T19:58:25.181Z,51.90
2022-12-01T20:03:28.396Z,52.00
2022-12-01T20:08:35.485Z,37.10
2022-12-01T20:13:42.334Z,29.20
2022-12-01T20:18:46.833Z,22.50
2022-12-01T20:23:59.979Z,40.30
2022-12-01T20:29:15.161Z,48.20
2022-12-01T20:34:27.151Z,23.70
2022-12-01T20:39:35.608Z,42.20
2022-12-01T20:44:40.387Z,55.50
2022-12-01T20:49:43.861Z,55.40
2022-12-01T20:54:47.113Z,35.20
2022-12-01T20:59:50.482Z,44.60
2022-12-01T21:04:57.754Z,41.80
2022-12-01T21:10:03.360Z,38.80
2022-12-01T21:15:29.605Z,24.40
2022-12-01T21:20:40.764Z,23.10
2022-12-01T21:25:44.926Z,20.70
2022-12-01T21:30:49.735Z,35.10
2022-12-01T21:35:53.090Z,39.30
2022-12-01T21:40:56.214Z,19.80
2022-12-01T21:46:14.015Z,15.50
2022-12-01T21:51:25.106Z,23.00
2022-12-01T21:56:31.953Z,16.10
2022-12-01T22:01:35.780Z,19.40
2022-12-01T22:06:44.536Z,11.60
2022-12-01T22:12:10.254Z,37.30
2022-12-01T22:17:20.605Z,26.80
2022-12-01T22:22:27.578Z,24.40
2022-12-01T22:27:38.718Z,34.70
2022-12-01T22:32:48.267Z,35.10
2022-12-01T22:38:06.722Z,37.00
2022-12-01T22:43:15.773Z,24.10
2022-12-01T22:48:29.081Z,18.50
2022-12-01T22:53:32.248Z,19.70
2022-12-01T22:58:41.244Z,12.00
2022-12-01T23:03:44.367Z,14.20
2022-12-01T23:08:47.578Z,12.80
2022-12-01T23:13:50.789Z,13.90
2022-12-01T23:18:55.435Z,18.00
2022-12-01T23:23:58.543Z,33.10
2022-12-01T23:29:01.841Z,40.50
2022-12-01T23:34:15.532Z,31.80
2022-12-01T23:39:29.182Z,24.40
2022-12-01T23:44:45.783Z,22.90
2022-12-01T23:50:07.017Z,16.80
2022-12-01T23:55:29.978Z,16.80
